Flight Track Log - Related Links

Times and Time Zones

All times are in EDT time to prevent confusion due to time zone crossing. See the SWA419 flight status page for this flight to view local times or setup timezone preferences in your user account.

Time Position Orientation Groundspeed Altitude Reporting Facility
EDT Latitude Longitude Course Direction KTS MPH feet Rate Location/Type
Tue 06:26:27 PM 29.5733 -98.4217 38° Northeast 189 217 2,800  Level Houston Center
Tue 06:26:42 PM 29.5847 -98.4131 33° Northeast 188 216 3,400 1,714 Climbing Houston Center
Tue 06:27:44 PM 29.6569 -98.3986 10° North 277 319 5,000 1,210 Climbing Houston Center
Tue 06:28:46 PM 29.7400 -98.3967 North 279 321 5,900 2,419 Climbing Houston Center
Tue 06:29:48 PM 29.8147 -98.3964 360° North 269 310 10,000 3,194 Climbing Houston Center
Tue 06:30:50 PM 29.9058 -98.3947 North 310 357 12,500 2,613 Climbing Houston Center
Tue 06:31:52 PM 29.9994 -98.3942 360° North 335 386 15,400 2,927 Climbing Houston Center
Tue 06:32:53 PM 30.1014 -98.3947 360° North 363 418 18,500 3,024 Climbing Houston Center
Tue 06:33:55 PM 30.2144 -98.3931 North 371 427 21,600 2,565 Climbing Houston Center
Tue 06:34:57 PM 30.3164 -98.3925 360° North 392 451 23,800 1,645 Climbing Houston Center
Tue 06:35:59 PM 30.4319 -98.3900 North 407 468 25,000 581 Climbing Houston Center
Tue 06:37:01 PM 30.5658 -98.3889 360° North 407 468 25,000  Level Houston Center
Tue 06:38:03 PM 30.6811 -98.3886 360° North 408 470 25,000 97 Level Houston Center
Tue 06:39:05 PM 30.7961 -98.3875 360° North 408 470 25,200 1,073 Climbing Houston Center
Tue 06:40:06 PM 30.9100 -98.4117 350° North 423 487 27,200 1,854 Climbing Houston Center
Tue 06:41:08 PM 31.0047 -98.4983 322° Northwest 430 495 29,000 1,694 Climbing Houston Center
Tue 06:42:10 PM 31.1100 -98.5756 328° Northwest 442 509 30,700 1,839 Climbing Houston Center
Tue 06:43:12 PM 31.2197 -98.6417 333° Northwest 441 507 32,800 1,887 Climbing Houston Center
Tue 06:44:14 PM 31.3289 -98.7072 333° Northwest 436 502 34,600 1,588 Climbing Houston Center
Tue 06:44:54 PM 31.4022 -98.7544 331° Northwest 435 501 35,500 1,260 Climbing Fort Worth Center
Tue 06:45:54 PM 31.5103 -98.8217 332° Northwest 430 495 36,700 1,250 Climbing Fort Worth Center
Tue 06:46:54 PM 31.6200 -98.8869 333° Northwest 430 495 38,000 650 Climbing Fort Worth Center
Tue 06:47:54 PM 31.7236 -98.9519 332° Northwest 430 495 38,000  Level Fort Worth Center
Tue 06:48:54 PM 31.8336 -99.0150 334° Northwest 430 495 38,000  Level Fort Worth Center
Tue 06:49:54 PM 31.9411 -99.0806 333° Northwest 430 495 38,000  Level Fort Worth Center
Tue 06:50:54 PM 32.0469 -99.1439 333° Northwest 430 495 38,000  Level Fort Worth Center
Tue 06:51:54 PM 32.1525 -99.2097 332° Northwest 430 495 38,000  Level Fort Worth Center
Tue 06:52:54 PM 32.2581 -99.2756 332° Northwest 430 495 38,000  Level Fort Worth Center
Tue 06:53:54 PM 32.3633 -99.3392 333° Northwest 430 495 38,000  Level Fort Worth Center
Tue 06:54:54 PM 32.4689 -99.4056 332° Northwest 430 495 38,000  Level Fort Worth Center
Tue 06:55:54 PM 32.5722 -99.4719 332° Northwest 430 495 38,000  Level Fort Worth Center
Tue 06:56:54 PM 32.6797 -99.5361 333° Northwest 430 495 38,000  Level Fort Worth Center
Tue 06:57:54 PM 32.7892 -99.6028 333° Northwest 430 495 38,000  Level Fort Worth Center
Tue 06:58:54 PM 32.9067 -99.6800 331° Northwest 430 495 38,000  Level Fort Worth Center
Tue 06:59:54 PM 33.0161 -99.7472 333° Northwest 430 495 38,000  Level Fort Worth Center
Tue 07:00:54 PM 33.1233 -99.8144 332° Northwest 430 495 38,000  Level Fort Worth Center
Tue 07:01:54 PM 33.2286 -99.8844 331° Northwest 430 495 38,000  Level Fort Worth Center
Tue 07:02:54 PM 33.3336 -99.9494 333° Northwest 430 495 38,000  Level Fort Worth Center
Tue 07:03:54 PM 33.4386 -100.0197 331° Northwest 430 495 38,000  Level Fort Worth Center
Tue 07:04:54 PM 33.5458 -100.0853 333° Northwest 430 495 38,000  Level Fort Worth Center
Tue 07:05:54 PM 33.6528 -100.1558 331° Northwest 430 495 38,000  Level Fort Worth Center
Tue 07:06:54 PM 33.7597 -100.2242 332° Northwest 430 495 38,000  Level Fort Worth Center
Tue 07:07:54 PM 33.8647 -100.2925 332° Northwest 430 495 38,000  Level Fort Worth Center
Tue 07:08:54 PM 33.9717 -100.3611 332° Northwest 430 495 38,000  Level Fort Worth Center
Tue 07:09:54 PM 34.0786 -100.4275 333° Northwest 430 495 38,000  Level Fort Worth Center
Tue 07:11:53 PM 34.2883 -100.5661 331° Northwest 432 497 38,000  Level Albuquerque Center
Tue 07:12:55 PM 34.3925 -100.6350 331° Northwest 429 494 38,000  Level Albuquerque Center
Tue 07:13:57 PM 34.4981 -100.7039 332° Northwest 430 495 38,000  Level Albuquerque Center
Tue 07:14:58 PM 34.6042 -100.7731 332° Northwest 433 498 38,000  Level Albuquerque Center
Tue 07:16:00 PM 34.7089 -100.8433 331° Northwest 432 497 38,000  Level Albuquerque Center
Tue 07:17:01 PM 34.8147 -100.9122 332° Northwest 432 497 38,000  Level Albuquerque Center
Tue 07:18:03 PM 34.9192 -100.9831 331° Northwest 433 498 38,000  Level Albuquerque Center
Tue 07:19:05 PM 35.0461 -101.0672 332° Northwest 433 498 38,000  Level Albuquerque Center
Tue 07:20:06 PM 35.1503 -101.1369 331° Northwest 432 497 38,000 -98 Level Albuquerque Center
Tue 07:21:08 PM 35.2550 -101.2067 331° Northwest 432 497 37,800 -585 Descending Albuquerque Center
Tue 07:22:09 PM 35.3592 -101.2769 331° Northwest 432 497 36,800 -878 Descending Albuquerque Center
Tue 07:23:11 PM 35.4586 -101.3436 331° Northwest 431 496 36,000 -390 Descending Albuquerque Center
Tue 07:24:12 PM 35.5644 -101.4158 331° Northwest 425 489 36,000  Level Albuquerque Center
Tue 07:25:14 PM 35.6872 -101.4997 331° Northwest 423 487 36,000  Level Albuquerque Center
Tue 07:26:16 PM 35.7900 -101.5708 331° Northwest 425 489 36,000  Level Albuquerque Center
Tue 07:27:17 PM 35.8928 -101.6414 331° Northwest 425 489 36,000  Level Albuquerque Center
Tue 07:28:19 PM 35.9950 -101.7092 332° Northwest 422 486 36,000  Level Albuquerque Center
Tue 07:29:20 PM 36.0978 -101.7800 331° Northwest 423 487 36,000  Level Albuquerque Center
Tue 07:30:22 PM 36.2008 -101.8511 331° Northwest 425 489 36,000  Level Albuquerque Center
Tue 07:31:23 PM 36.3028 -101.9222 331° Northwest 423 487 36,000  Level Albuquerque Center
Tue 07:32:25 PM 36.4267 -102.0061 331° Northwest 423 487 36,000  Level Albuquerque Center
Tue 07:33:27 PM 36.5303 -102.0797 330° Northwest 427 491 36,000  Level Albuquerque Center
Tue 07:34:28 PM 36.6322 -102.1508 331° Northwest 424 488 36,000  Level Albuquerque Center
Tue 07:35:30 PM 36.7353 -102.2244 330° Northwest 425 489 36,000  Level Albuquerque Center
Tue 07:36:31 PM 36.8383 -102.2964 331° Northwest 424 488 36,000  Level Albuquerque Center
Tue 07:37:33 PM 36.9489 -102.3744 331° Northwest 435 501 36,000  Level Albuquerque Center
Tue 07:38:34 PM 37.0656 -102.4564 331° Northwest 431 496 36,000  Level Albuquerque Center
Tue 07:39:36 PM 37.1664 -102.5272 331° Northwest 428 493 36,000  Level Albuquerque Center
Tue 07:40:37 PM 37.2658 -102.6003 330° Northwest 432 497 36,000  Level Albuquerque Center
Tue 07:41:39 PM 37.3822 -102.6839 330° Northwest 432 497 36,000  Level Albuquerque Center
Tue 07:42:40 PM 37.4814 -102.7550 330° Northwest 431 496 36,000  Level Albuquerque Center
Tue 07:43:42 PM 37.5956 -102.8419 329° Northwest 431 496 36,000  Level Albuquerque Center
Tue 07:44:43 PM 37.6933 -102.9147 330° Northwest 429 494 36,000  Level Albuquerque Center
Tue 07:45:41 PM 37.7906 -102.9872 329° Northwest 426 490 36,000  Level Denver Center
Tue 07:46:42 PM 37.9036 -103.0728 329° Northwest 425 489 36,000  Level Denver Center
Tue 07:47:44 PM 37.9989 -103.1453 329° Northwest 421 484 36,000 -484 Level Denver Center
Tue 07:48:46 PM 38.1122 -103.2319 329° Northwest 426 490 35,000 -919 Descending Denver Center
Tue 07:49:48 PM 38.2100 -103.3061 329° Northwest 429 494 34,100 -919 Descending Denver Center
Tue 07:50:50 PM 38.3100 -103.3817 329° Northwest 424 488 33,100 -976 Descending Denver Center
Tue 07:51:51 PM 38.4189 -103.4672 328° Northwest 426 490 32,100 -976 Descending Denver Center
Tue 07:52:53 PM 38.5169 -103.5431 329° Northwest 430 495 31,100 -968 Descending Denver Center
Tue 07:53:55 PM 38.6367 -103.6328 330° Northwest 434 499 30,100 -919 Descending Denver Center
Tue 07:54:57 PM 38.7311 -103.7092 328° Northwest 435 501 29,200 -976 Descending Denver Center
Tue 07:55:58 PM 38.8467 -103.7981 329° Northwest 435 501 28,100 -1,951 Descending Denver Center
Tue 07:57:00 PM 38.9461 -103.8775 328° Northwest 430 495 25,200 -2,855 Descending Denver Center
Tue 07:58:02 PM 39.0442 -103.9561 328° Northwest 412 474 22,200 -2,710 Descending Denver Center
Tue 07:59:04 PM 39.1422 -104.0300 330° Northwest 407 468 19,600 -2,238 Descending Denver Center
Tue 08:00:08 PM 39.2442 -104.1128 328° Northwest 391 450 17,500 -1,571 Descending Denver Center
Tue 08:01:10 PM 39.2808 -104.2161 295° West 311 358 16,300 -1,366 Descending Denver Center
Tue 08:02:11 PM 39.3197 -104.3200 296° West 308 354 14,700 -1,512 Descending Denver Center
Tue 08:03:13 PM 39.3836 -104.3967 317° Northwest 313 360 13,200 -1,597 Descending Denver Center
Tue 08:04:15 PM 39.4544 -104.4803 318° Northwest 319 367 11,400 -1,561 Descending Denver Center
Tue 08:05:16 PM 39.5131 -104.5631 313° West 315 362 10,000 -927 Descending Denver Center
Tue 08:06:18 PM 39.5797 -104.6167 328° Northwest 279 321 9,500 -823 Descending Denver Center
Tue 08:07:20 PM 39.6489 -104.6353 348° North 237 273 8,300 -871 Descending Denver Center
Tue 08:08:22 PM 39.7086 -104.6453 353° North 219 252 7,700 -732 Descending Denver Center
Tue 08:09:23 PM 39.7578 -104.6431 North 181 208 6,800 -829 Descending Denver Center
Tue 08:10:25 PM 39.8033 -104.6419 North 153 176 6,000 -726 Descending Denver Center
Tue 08:11:27 PM 39.8436 -104.6419 360° North 148 170 5,300 -677 Descending Denver Center
Tue 08:13:00 PM 39.8500 -104.6667 North  Level FlightAware Approximate
Tue 08:20:00 PM 39.8617 -104.6732 North  Level Estimated
Tue 08:21:00 PM 39.8617 -104.6732 North  Level Estimated
Tue 08:22:00 PM 39.8617 -104.6732 North  Level Estimated

Login

Don't have an account? Register now (free) for customized features, flight alerts, and more!